Imperial County Airport Imperial US
ICAO: KIPL
IATA: IPL
Category: Medium
Scheduled Services: No

Elevation: -54 ft
TransAlt. 18000 ft.

Airport Communications:
ASOS:132.175
LOS ANGELES CNTR:128.6
SAN DIEGO RDO:122.5
CTAF/UNICOM:122.7

KIPL Zoom In..

Runways:

(A) RW 08 length 4501 ft width 75 ft
---- / hdg 76

(B) RW 14 length 5308 ft width 100 ft
---- / hdg 139

(C) RW 26 length 4501 ft width 75 ft
---- / hdg 256

(D) RW 32 length 5308 ft width 100 ft
---- / hdg 319

Location; KIPL
Day. 20 / Time. 09.53 Zulu
* Altimeter: 29.96
* Temperature: 12° c. 53.6°f.
* Wind from: 250° Speed 08 kn.
Dewpoint: 02° c.
Visibility: 10 Statute Miles.
Clouds: Clear (automated report).

KIPL 200953Z AUTO 25008KT 10SM CLR 12/02 A2996 RMK AO2 SLP146 T01220022


Wind From 250°
Speed 08 kn.

  YouTube Music Video
 
jpsmedia.com for Web Design  worldairports.se 2018   terms of use